Weather

EOSM Weather Station at 10:46 on 23/08/17

Wind: 8kt SSE ( 9mph 153° ) Today's High: 17kt at 8:52 QFE: 1004mb QNH: 1008mb (Steady) Temp: 19°C Dew Point: 16°C Humidity: 88% Rain: None Sunrise: 5:57 Sunset: 20:27

TAFs

  • Edinburgh TAF EGPH 230501Z 2306/2406 05008KT 9999 SCT008 TEMPO 2306/2309 6000 RA BKN014 PROB30 TEMPO 2306/2309 3000 +TSRA BKN008CB BECMG 2309/2312 24010KT PROB30 TEMPO 2309/2315 6000 SHRA PROB40 TEMPO 2404/2406 6000 SHRA
  • Leuchars TAF EGQL 230727Z 2309/2318 13012KT 4000 RA BKN005 TEMPO 2309/2310 2000 +TSRA BKN004 BKN020CB PROB30 TEMPO 2309/2310 8000 -RA FEW004 BKN025 BECMG 2310/2312 9999 NSW FEW020 PROB30 TEMPO 2312/2315 SCT020

Live Airfield Webcams

Looking north towards Berwick Law Looking west Looking east

Windy.com Forecast

Met Office Five Day Forecast

OZEE AND BLUE SKY BLUE FLYING SUITS

We are offering a 5% discount on the price of Ozee and Blue Sky Blue flying suits - please send an email to jill@eosm.co.uk giving your choice of suit, size and colour preference.

Pooleys advert

Pooleys are supporting East of Scotland Microlights members and guests by offering 5% discount to anyone making a purchase on their website www.pooleys.com. Simply enter the promotional code "EOSM" when you checkout and you will get a 5% discount on whatever you buy.